sensor_id;sensor_type;location;lat;lon;timestamp;P1;durP1;ratioP1;P2;durP2;ratioP2
61570;SDS011;47463;49.884;10.010;2022-12-18T00:00:00;54.4;;;22.3;;
61570;SDS011;47463;49.884;10.010;2022-12-18T00:05:00;50.5;;;22.1;;
61570;SDS011;47463;49.884;10.010;2022-12-18T00:10:00;59.5;;;24.9;;
61570;SDS011;47463;49.884;10.010;2022-12-18T00:15:00;65;;;24.6;;
61570;SDS011;47463;49.884;10.010;2022-12-18T00:20:00;49.6;;;22.7;;
61570;SDS011;47463;49.884;10.010;2022-12-18T00:25:00;57;;;23.6;;
61570;SDS011;47463;49.884;10.010;2022-12-18T00:30:00;57;;;23.6;;
61570;SDS011;47463;49.884;10.010;2022-12-18T00:35:00;51.8;;;21.6;;
61570;SDS011;47463;49.884;10.010;2022-12-18T00:40:00;54.3;;;21.9;;
61570;SDS011;47463;49.884;10.010;2022-12-18T00:45:00;50.4;;;21.8;;
61570;SDS011;47463;49.884;10.010;2022-12-18T00:50:00;48.9;;;21.2;;
61570;SDS011;47463;49.884;10.010;2022-12-18T00:55:00;51.6;;;22.2;;
61570;SDS011;47463;49.884;10.010;2022-12-18T01:00:00;51.6;;;22.2;;
61570;SDS011;47463;49.884;10.010;2022-12-18T01:05:00;56.5;;;23.7;;
61570;SDS011;47463;49.884;10.010;2022-12-18T01:10:00;57;;;24;;
61570;SDS011;47463;49.884;10.010;2022-12-18T01:15:00;54.5;;;22.9;;
61570;SDS011;47463;49.884;10.010;2022-12-18T01:20:00;50.8;;;23.2;;
61570;SDS011;47463;49.884;10.010;2022-12-18T01:25:00;55.5;;;23.2;;
61570;SDS011;47463;49.884;10.010;2022-12-18T01:30:00;55.5;;;23.2;;
61570;SDS011;47463;49.884;10.010;2022-12-18T01:35:00;54.9;;;23.1;;
61570;SDS011;47463;49.884;10.010;2022-12-18T01:40:00;59.5;;;23;;
61570;SDS011;47463;49.884;10.010;2022-12-18T01:45:01;58.6;;;23.1;;
61570;SDS011;47463;49.884;10.010;2022-12-18T01:50:00;58.2;;;23.2;;
61570;SDS011;47463;49.884;10.010;2022-12-18T01:55:00;59;;;23.1;;
61570;SDS011;47463;49.884;10.010;2022-12-18T02:00:01;59;;;23.1;;
61570;SDS011;47463;49.884;10.010;2022-12-18T02:05:00;55;;;22.8;;
61570;SDS011;47463;49.884;10.010;2022-12-18T02:10:05;55.3;;;22.6;;
61570;SDS011;47463;49.884;10.010;2022-12-18T02:15:01;54.9;;;22;;
61570;SDS011;47463;49.884;10.010;2022-12-18T02:20:02;53.7;;;21.5;;
61570;SDS011;47463;49.884;10.010;2022-12-18T02:25:03;52.7;;;22.2;;
61570;SDS011;47463;49.884;10.010;2022-12-18T02:30:00;52.7;;;22.2;;
61570;SDS011;47463;49.884;10.010;2022-12-18T02:35:00;51.2;;;21;;
61570;SDS011;47463;49.884;10.010;2022-12-18T02:40:00;47.8;;;22.5;;
61570;SDS011;47463;49.884;10.010;2022-12-18T02:45:00;63.5;;;23.4;;
61570;SDS011;47463;49.884;10.010;2022-12-18T02:50:02;50.7;;;21.5;;
61570;SDS011;47463;49.884;10.010;2022-12-18T02:55:01;47.3;;;20.9;;
61570;SDS011;47463;49.884;10.010;2022-12-18T03:00:02;47.3;;;20.9;;
61570;SDS011;47463;49.884;10.010;2022-12-18T03:05:01;53.9;;;21.6;;
61570;SDS011;47463;49.884;10.010;2022-12-18T03:10:00;51.9;;;21.5;;
61570;SDS011;47463;49.884;10.010;2022-12-18T03:15:00;57.8;;;23;;
61570;SDS011;47463;49.884;10.010;2022-12-18T03:20:02;52.2;;;22.3;;
61570;SDS011;47463;49.884;10.010;2022-12-18T03:25:00;51.1;;;21.7;;
61570;SDS011;47463;49.884;10.010;2022-12-18T03:30:00;51.1;;;21.7;;
61570;SDS011;47463;49.884;10.010;2022-12-18T03:35:00;54.8;;;21.5;;
61570;SDS011;47463;49.884;10.010;2022-12-18T03:40:00;46.9;;;20.7;;
61570;SDS011;47463;49.884;10.010;2022-12-18T03:45:02;58.4;;;23.5;;
61570;SDS011;47463;49.884;10.010;2022-12-18T03:50:02;52.4;;;20.7;;
61570;SDS011;47463;49.884;10.010;2022-12-18T03:55:00;46.6;;;20.2;;
61570;SDS011;47463;49.884;10.010;2022-12-18T04:00:00;46.6;;;20.2;;
61570;SDS011;47463;49.884;10.010;2022-12-18T04:05:00;56.2;;;22.2;;
61570;SDS011;47463;49.884;10.010;2022-12-18T04:10:00;56.1;;;22;;
61570;SDS011;47463;49.884;10.010;2022-12-18T04:15:00;55.4;;;23;;
61570;SDS011;47463;49.884;10.010;2022-12-18T04:20:00;55.2;;;20.5;;
61570;SDS011;47463;49.884;10.010;2022-12-18T04:25:00;54.8;;;20.9;;
61570;SDS011;47463;49.884;10.010;2022-12-18T04:30:00;54.8;;;20.9;;
61570;SDS011;47463;49.884;10.010;2022-12-18T04:35:00;51;;;20.6;;
61570;SDS011;47463;49.884;10.010;2022-12-18T04:40:00;52.3;;;20.1;;
61570;SDS011;47463;49.884;10.010;2022-12-18T04:45:00;49.1;;;21.3;;
61570;SDS011;47463;49.884;10.010;2022-12-18T04:50:00;55.5;;;22.2;;
61570;SDS011;47463;49.884;10.010;2022-12-18T04:55:00;45.1;;;20.5;;
61570;SDS011;47463;49.884;10.010;2022-12-18T05:00:00;45.1;;;20.5;;
61570;SDS011;47463;49.884;10.010;2022-12-18T05:05:00;54.7;;;21.8;;
61570;SDS011;47463;49.884;10.010;2022-12-18T05:10:00;50.5;;;20.1;;
61570;SDS011;47463;49.884;10.010;2022-12-18T05:15:00;58.6;;;23.3;;
61570;SDS011;47463;49.884;10.010;2022-12-18T05:20:00;48.9;;;20.6;;
61570;SDS011;47463;49.884;10.010;2022-12-18T05:25:00;48.8;;;20.5;;
61570;SDS011;47463;49.884;10.010;2022-12-18T05:30:00;48.8;;;20.5;;
61570;SDS011;47463;49.884;10.010;2022-12-18T05:35:00;52.8;;;21.6;;
61570;SDS011;47463;49.884;10.010;2022-12-18T05:40:00;51.3;;;22;;
61570;SDS011;47463;49.884;10.010;2022-12-18T05:45:00;49.7;;;21.1;;
61570;SDS011;47463;49.884;10.010;2022-12-18T05:50:00;59.9;;;22.9;;
61570;SDS011;47463;49.884;10.010;2022-12-18T05:55:00;60.8;;;23.1;;
61570;SDS011;47463;49.884;10.010;2022-12-18T06:00:00;60.8;;;23.1;;
61570;SDS011;47463;49.884;10.010;2022-12-18T06:05:00;48.6;;;21.6;;
61570;SDS011;47463;49.884;10.010;2022-12-18T06:10:00;54.8;;;21.6;;
61570;SDS011;47463;49.884;10.010;2022-12-18T06:15:00;55.8;;;21.1;;
61570;SDS011;47463;49.884;10.010;2022-12-18T06:20:00;51.7;;;21.4;;
61570;SDS011;47463;49.884;10.010;2022-12-18T06:25:00;50.2;;;21.5;;
61570;SDS011;47463;49.884;10.010;2022-12-18T06:30:00;50.2;;;21.5;;
61570;SDS011;47463;49.884;10.010;2022-12-18T06:35:00;51;;;20;;
61570;SDS011;47463;49.884;10.010;2022-12-18T06:40:00;51.1;;;21.1;;
61570;SDS011;47463;49.884;10.010;2022-12-18T06:45:00;59.2;;;21.2;;
61570;SDS011;47463;49.884;10.010;2022-12-18T06:50:00;51.4;;;21;;
61570;SDS011;47463;49.884;10.010;2022-12-18T06:55:00;51.5;;;20.4;;
61570;SDS011;47463;49.884;10.010;2022-12-18T07:00:00;51.5;;;20.4;;
61570;SDS011;47463;49.884;10.010;2022-12-18T07:05:00;51.7;;;20.8;;
61570;SDS011;47463;49.884;10.010;2022-12-18T07:10:00;48.9;;;20;;
61570;SDS011;47463;49.884;10.010;2022-12-18T07:15:00;48.6;;;19.7;;
61570;SDS011;47463;49.884;10.010;2022-12-18T07:20:00;49.1;;;20.5;;
61570;SDS011;47463;49.884;10.010;2022-12-18T07:25:00;53.5;;;20.5;;
61570;SDS011;47463;49.884;10.010;2022-12-18T07:30:00;53.5;;;20.5;;
61570;SDS011;47463;49.884;10.010;2022-12-18T07:35:00;54.5;;;21;;
61570;SDS011;47463;49.884;10.010;2022-12-18T07:40:00;55.7;;;23;;
61570;SDS011;47463;49.884;10.010;2022-12-18T07:45:00;54.4;;;20.9;;
61570;SDS011;47463;49.884;10.010;2022-12-18T07:50:00;53.4;;;20.5;;
61570;SDS011;47463;49.884;10.010;2022-12-18T07:55:00;61.4;;;21.2;;
61570;SDS011;47463;49.884;10.010;2022-12-18T08:00:00;61.4;;;21.2;;
61570;SDS011;47463;49.884;10.010;2022-12-18T08:05:00;68.4;;;22;;
61570;SDS011;47463;49.884;10.010;2022-12-18T08:10:00;68.4;;;21.9;;
61570;SDS011;47463;49.884;10.010;2022-12-18T08:15:00;77.3;;;22.1;;
61570;SDS011;47463;49.884;10.010;2022-12-18T08:20:00;67.5;;;21.4;;
61570;SDS011;47463;49.884;10.010;2022-12-18T08:25:00;62.6;;;21.4;;
61570;SDS011;47463;49.884;10.010;2022-12-18T08:30:00;62.6;;;21.4;;
61570;SDS011;47463;49.884;10.010;2022-12-18T08:35:00;75.7;;;24.5;;
61570;SDS011;47463;49.884;10.010;2022-12-18T08:40:00;62.3;;;21.9;;
61570;SDS011;47463;49.884;10.010;2022-12-18T08:45:00;70.7;;;22;;
61570;SDS011;47463;49.884;10.010;2022-12-18T08:50:00;63.9;;;21.3;;
61570;SDS011;47463;49.884;10.010;2022-12-18T08:55:00;61.8;;;20.8;;
61570;SDS011;47463;49.884;10.010;2022-12-18T09:00:00;61.8;;;20.8;;
61570;SDS011;47463;49.884;10.010;2022-12-18T09:05:00;67.5;;;23.3;;
61570;SDS011;47463;49.884;10.010;2022-12-18T09:10:00;65.3;;;23.8;;
61570;SDS011;47463;49.884;10.010;2022-12-18T09:15:00;63.7;;;22.3;;
61570;SDS011;47463;49.884;10.010;2022-12-18T09:20:00;60.3;;;22.4;;
61570;SDS011;47463;49.884;10.010;2022-12-18T09:25:00;59.8;;;23.5;;
61570;SDS011;47463;49.884;10.010;2022-12-18T09:30:00;59.8;;;23.5;;
61570;SDS011;47463;49.884;10.010;2022-12-18T09:35:00;56;;;22.4;;
61570;SDS011;47463;49.884;10.010;2022-12-18T09:40:00;57.9;;;21.9;;
61570;SDS011;47463;49.884;10.010;2022-12-18T09:45:00;55.9;;;23.1;;
61570;SDS011;47463;49.884;10.010;2022-12-18T09:50:01;53.8;;;20.4;;
61570;SDS011;47463;49.884;10.010;2022-12-18T09:55:00;56;;;20.2;;
61570;SDS011;47463;49.884;10.010;2022-12-18T10:00:03;56;;;20.2;;
61570;SDS011;47463;49.884;10.010;2022-12-18T10:05:02;60.6;;;21.8;;
61570;SDS011;47463;49.884;10.010;2022-12-18T10:10:01;58.1;;;22.9;;
61570;SDS011;47463;49.884;10.010;2022-12-18T10:15:01;59;;;23.3;;
61570;SDS011;47463;49.884;10.010;2022-12-18T10:20:01;67.5;;;23.9;;
61570;SDS011;47463;49.884;10.010;2022-12-18T10:25:01;63.2;;;21.7;;
61570;SDS011;47463;49.884;10.010;2022-12-18T10:30:00;63.2;;;21.7;;
61570;SDS011;47463;49.884;10.010;2022-12-18T10:35:00;66.4;;;22.7;;
61570;SDS011;47463;49.884;10.010;2022-12-18T10:40:09;68.9;;;23.7;;
61570;SDS011;47463;49.884;10.010;2022-12-18T10:45:01;61.7;;;21.4;;
61570;SDS011;47463;49.884;10.010;2022-12-18T10:50:00;64.8;;;20.8;;
61570;SDS011;47463;49.884;10.010;2022-12-18T10:55:02;54.6;;;20.3;;
61570;SDS011;47463;49.884;10.010;2022-12-18T11:00:05;54.6;;;20.3;;
61570;SDS011;47463;49.884;10.010;2022-12-18T11:05:00;56.6;;;20;;
61570;SDS011;47463;49.884;10.010;2022-12-18T11:10:00;58.4;;;20.4;;
61570;SDS011;47463;49.884;10.010;2022-12-18T11:15:00;57.9;;;20.4;;
61570;SDS011;47463;49.884;10.010;2022-12-18T11:20:00;62.8;;;21.7;;
61570;SDS011;47463;49.884;10.010;2022-12-18T11:25:00;55.7;;;20.6;;
61570;SDS011;47463;49.884;10.010;2022-12-18T11:30:07;55.7;;;20.6;;
61570;SDS011;47463;49.884;10.010;2022-12-18T11:35:02;57.4;;;19.1;;
61570;SDS011;47463;49.884;10.010;2022-12-18T11:40:01;45.9;;;17.1;;
61570;SDS011;47463;49.884;10.010;2022-12-18T11:45:00;56.9;;;18.6;;
61570;SDS011;47463;49.884;10.010;2022-12-18T11:50:00;50.3;;;17.8;;
61570;SDS011;47463;49.884;10.010;2022-12-18T11:55:00;49.9;;;17;;
61570;SDS011;47463;49.884;10.010;2022-12-18T12:00:01;49.9;;;17;;
61570;SDS011;47463;49.884;10.010;2022-12-18T12:05:02;45.8;;;16.4;;
61570;SDS011;47463;49.884;10.010;2022-12-18T12:10:02;41.7;;;16.1;;
61570;SDS011;47463;49.884;10.010;2022-12-18T12:15:01;46.8;;;15.5;;
61570;SDS011;47463;49.884;10.010;2022-12-18T12:20:01;46.9;;;17.5;;
61570;SDS011;47463;49.884;10.010;2022-12-18T12:25:03;42.2;;;16.2;;
61570;SDS011;47463;49.884;10.010;2022-12-18T12:30:01;42.2;;;16.2;;
61570;SDS011;47463;49.884;10.010;2022-12-18T12:35:06;49.1;;;17.5;;
61570;SDS011;47463;49.884;10.010;2022-12-18T12:40:00;43.7;;;15.6;;
61570;SDS011;47463;49.884;10.010;2022-12-18T12:45:00;47.6;;;16.8;;
61570;SDS011;47463;49.884;10.010;2022-12-18T12:50:01;41.1;;;15.9;;
61570;SDS011;47463;49.884;10.010;2022-12-18T12:55:00;47.2;;;16.4;;
61570;SDS011;47463;49.884;10.010;2022-12-18T13:00:00;47.2;;;16.4;;
61570;SDS011;47463;49.884;10.010;2022-12-18T13:05:01;43;;;16.4;;
61570;SDS011;47463;49.884;10.010;2022-12-18T13:10:32;47.2;;;17.1;;
61570;SDS011;47463;49.884;10.010;2022-12-18T13:15:11;43.8;;;17;;
61570;SDS011;47463;49.884;10.010;2022-12-18T13:20:06;46;;;16.2;;
61570;SDS011;47463;49.884;10.010;2022-12-18T13:25:00;49.8;;;16.8;;
61570;SDS011;47463;49.884;10.010;2022-12-18T13:30:00;49.8;;;16.8;;
61570;SDS011;47463;49.884;10.010;2022-12-18T13:35:36;46.1;;;16.9;;
61570;SDS011;47463;49.884;10.010;2022-12-18T13:40:00;44.9;;;17.6;;
61570;SDS011;47463;49.884;10.010;2022-12-18T13:45:00;46;;;16;;
61570;SDS011;47463;49.884;10.010;2022-12-18T13:50:00;45.7;;;16.8;;
61570;SDS011;47463;49.884;10.010;2022-12-18T13:55:01;48.3;;;18.5;;
61570;SDS011;47463;49.884;10.010;2022-12-18T14:00:16;48.3;;;18.5;;
61570;SDS011;47463;49.884;10.010;2022-12-18T14:05:00;44.6;;;17.1;;
61570;SDS011;47463;49.884;10.010;2022-12-18T14:10:00;53.8;;;19.5;;
61570;SDS011;47463;49.884;10.010;2022-12-18T14:15:03;56;;;20.2;;
61570;SDS011;47463;49.884;10.010;2022-12-18T14:20:00;54.3;;;20.6;;
61570;SDS011;47463;49.884;10.010;2022-12-18T14:25:05;51;;;19.5;;
61570;SDS011;47463;49.884;10.010;2022-12-18T14:30:00;51;;;19.5;;
61570;SDS011;47463;49.884;10.010;2022-12-18T14:35:00;52.8;;;19.4;;
61570;SDS011;47463;49.884;10.010;2022-12-18T14:40:00;52.6;;;20.2;;
61570;SDS011;47463;49.884;10.010;2022-12-18T14:45:32;50.2;;;19.6;;
61570;SDS011;47463;49.884;10.010;2022-12-18T14:50:00;51.6;;;19.9;;
61570;SDS011;47463;49.884;10.010;2022-12-18T14:55:00;50.4;;;21.1;;
61570;SDS011;47463;49.884;10.010;2022-12-18T15:00:03;50.4;;;21.1;;
61570;SDS011;47463;49.884;10.010;2022-12-18T15:05:00;50.4;;;19.2;;
61570;SDS011;47463;49.884;10.010;2022-12-18T15:10:01;55.8;;;18.2;;
61570;SDS011;47463;49.884;10.010;2022-12-18T15:15:00;50.9;;;20.1;;
61570;SDS011;47463;49.884;10.010;2022-12-18T15:20:00;56;;;19.8;;
61570;SDS011;47463;49.884;10.010;2022-12-18T15:25:00;54.3;;;19.5;;
61570;SDS011;47463;49.884;10.010;2022-12-18T15:30:02;54.3;;;19.5;;
61570;SDS011;47463;49.884;10.010;2022-12-18T15:35:03;55.9;;;21.4;;
61570;SDS011;47463;49.884;10.010;2022-12-18T15:40:00;49.6;;;18;;
61570;SDS011;47463;49.884;10.010;2022-12-18T15:45:00;48.7;;;19.7;;
61570;SDS011;47463;49.884;10.010;2022-12-18T15:50:00;50.9;;;19.7;;
61570;SDS011;47463;49.884;10.010;2022-12-18T15:55:00;56.1;;;21.1;;
61570;SDS011;47463;49.884;10.010;2022-12-18T16:00:00;56.1;;;21.1;;
61570;SDS011;47463;49.884;10.010;2022-12-18T16:05:00;50.4;;;18.9;;
61570;SDS011;47463;49.884;10.010;2022-12-18T16:10:00;52.6;;;19;;
61570;SDS011;47463;49.884;10.010;2022-12-18T16:15:00;49.6;;;19.7;;
61570;SDS011;47463;49.884;10.010;2022-12-18T16:20:00;57.9;;;21.2;;
61570;SDS011;47463;49.884;10.010;2022-12-18T16:25:00;58.1;;;21.3;;
61570;SDS011;47463;49.884;10.010;2022-12-18T16:30:00;58.1;;;21.3;;
61570;SDS011;47463;49.884;10.010;2022-12-18T16:35:00;49.3;;;19.7;;
61570;SDS011;47463;49.884;10.010;2022-12-18T16:40:00;48.3;;;18.2;;
61570;SDS011;47463;49.884;10.010;2022-12-18T16:45:00;57.3;;;20.9;;
61570;SDS011;47463;49.884;10.010;2022-12-18T16:50:00;60.7;;;21.1;;
61570;SDS011;47463;49.884;10.010;2022-12-18T16:55:00;53.7;;;20.3;;
61570;SDS011;47463;49.884;10.010;2022-12-18T17:00:00;53.7;;;20.3;;
61570;SDS011;47463;49.884;10.010;2022-12-18T17:05:00;57.6;;;20.7;;
61570;SDS011;47463;49.884;10.010;2022-12-18T17:10:00;57.1;;;21.5;;
61570;SDS011;47463;49.884;10.010;2022-12-18T17:15:00;52.5;;;20.7;;
61570;SDS011;47463;49.884;10.010;2022-12-18T17:20:00;54.9;;;20.5;;
61570;SDS011;47463;49.884;10.010;2022-12-18T17:25:00;53.3;;;21.9;;
61570;SDS011;47463;49.884;10.010;2022-12-18T17:30:00;53.3;;;21.9;;
61570;SDS011;47463;49.884;10.010;2022-12-18T17:35:00;62.9;;;23.4;;
61570;SDS011;47463;49.884;10.010;2022-12-18T17:40:00;54.6;;;21.3;;
61570;SDS011;47463;49.884;10.010;2022-12-18T17:45:00;56.2;;;21.1;;
61570;SDS011;47463;49.884;10.010;2022-12-18T17:50:00;54.3;;;20.8;;
61570;SDS011;47463;49.884;10.010;2022-12-18T17:55:00;57.8;;;22.1;;
61570;SDS011;47463;49.884;10.010;2022-12-18T18:00:00;57.8;;;22.1;;
61570;SDS011;47463;49.884;10.010;2022-12-18T18:05:00;58.8;;;19.6;;
61570;SDS011;47463;49.884;10.010;2022-12-18T18:10:00;61.2;;;20.9;;
61570;SDS011;47463;49.884;10.010;2022-12-18T18:15:00;59.3;;;19.5;;
61570;SDS011;47463;49.884;10.010;2022-12-18T18:20:00;56.4;;;19.9;;
61570;SDS011;47463;49.884;10.010;2022-12-18T18:25:00;60.1;;;22.5;;
61570;SDS011;47463;49.884;10.010;2022-12-18T18:30:00;60.1;;;22.5;;
61570;SDS011;47463;49.884;10.010;2022-12-18T18:35:00;58.1;;;21;;
61570;SDS011;47463;49.884;10.010;2022-12-18T18:40:00;58;;;20.5;;
61570;SDS011;47463;49.884;10.010;2022-12-18T18:45:00;58.2;;;23.3;;
61570;SDS011;47463;49.884;10.010;2022-12-18T18:50:00;54.4;;;20.7;;
61570;SDS011;47463;49.884;10.010;2022-12-18T18:55:00;56.9;;;21.3;;
61570;SDS011;47463;49.884;10.010;2022-12-18T19:00:00;56.9;;;21.3;;
61570;SDS011;47463;49.884;10.010;2022-12-18T19:05:00;66.6;;;22;;
61570;SDS011;47463;49.884;10.010;2022-12-18T19:10:00;58.8;;;21.3;;
61570;SDS011;47463;49.884;10.010;2022-12-18T19:15:00;49.4;;;18.7;;
61570;SDS011;47463;49.884;10.010;2022-12-18T19:20:00;52.9;;;22.1;;
61570;SDS011;47463;49.884;10.010;2022-12-18T19:25:00;60.4;;;22.5;;
61570;SDS011;47463;49.884;10.010;2022-12-18T19:30:00;60.4;;;22.5;;
61570;SDS011;47463;49.884;10.010;2022-12-18T19:35:00;63.5;;;22.8;;
61570;SDS011;47463;49.884;10.010;2022-12-18T19:40:00;57;;;20.9;;
61570;SDS011;47463;49.884;10.010;2022-12-18T19:45:00;55.5;;;23.8;;
61570;SDS011;47463;49.884;10.010;2022-12-18T19:50:00;55.5;;;20.1;;
61570;SDS011;47463;49.884;10.010;2022-12-18T19:55:00;61.2;;;21.6;;
61570;SDS011;47463;49.884;10.010;2022-12-18T20:00:00;61.2;;;21.6;;
61570;SDS011;47463;49.884;10.010;2022-12-18T20:05:00;62.9;;;21.8;;
61570;SDS011;47463;49.884;10.010;2022-12-18T20:10:00;63.4;;;23;;
61570;SDS011;47463;49.884;10.010;2022-12-18T20:15:00;59.5;;;22.2;;
61570;SDS011;47463;49.884;10.010;2022-12-18T20:20:00;53.7;;;21.5;;
61570;SDS011;47463;49.884;10.010;2022-12-18T20:25:00;58.5;;;21.3;;
61570;SDS011;47463;49.884;10.010;2022-12-18T20:30:00;58.5;;;21.3;;
61570;SDS011;47463;49.884;10.010;2022-12-18T20:35:00;63.5;;;23.9;;
61570;SDS011;47463;49.884;10.010;2022-12-18T20:40:00;63;;;24;;
61570;SDS011;47463;49.884;10.010;2022-12-18T20:45:00;60.3;;;21.8;;
61570;SDS011;47463;49.884;10.010;2022-12-18T20:50:00;63.5;;;22.7;;
61570;SDS011;47463;49.884;10.010;2022-12-18T20:55:00;58.3;;;21.5;;
61570;SDS011;47463;49.884;10.010;2022-12-18T21:00:00;58.3;;;21.5;;
61570;SDS011;47463;49.884;10.010;2022-12-18T21:05:00;58.2;;;22.2;;
61570;SDS011;47463;49.884;10.010;2022-12-18T21:10:02;64.1;;;22.7;;
61570;SDS011;47463;49.884;10.010;2022-12-18T21:15:00;58.3;;;22.2;;
61570;SDS011;47463;49.884;10.010;2022-12-18T21:20:00;56.8;;;21.5;;
61570;SDS011;47463;49.884;10.010;2022-12-18T21:25:00;59.1;;;22.8;;
61570;SDS011;47463;49.884;10.010;2022-12-18T21:30:00;59.1;;;22.8;;
61570;SDS011;47463;49.884;10.010;2022-12-18T21:35:00;53.7;;;22.8;;
61570;SDS011;47463;49.884;10.010;2022-12-18T21:40:00;54.3;;;23;;
61570;SDS011;47463;49.884;10.010;2022-12-18T21:45:00;62.6;;;24.2;;
61570;SDS011;47463;49.884;10.010;2022-12-18T21:50:00;62.1;;;24.1;;
61570;SDS011;47463;49.884;10.010;2022-12-18T21:55:00;61.6;;;23.9;;
61570;SDS011;47463;49.884;10.010;2022-12-18T22:00:00;61.6;;;23.9;;
61570;SDS011;47463;49.884;10.010;2022-12-18T22:05:00;58.4;;;23.4;;
61570;SDS011;47463;49.884;10.010;2022-12-18T22:10:00;67.3;;;24.8;;
61570;SDS011;47463;49.884;10.010;2022-12-18T22:15:00;65.8;;;24.1;;
61570;SDS011;47463;49.884;10.010;2022-12-18T22:20:00;59.9;;;22.6;;
61570;SDS011;47463;49.884;10.010;2022-12-18T22:25:00;66.3;;;24.2;;
61570;SDS011;47463;49.884;10.010;2022-12-18T22:30:00;66.3;;;24.2;;
61570;SDS011;47463;49.884;10.010;2022-12-18T22:35:00;65.1;;;23.4;;
61570;SDS011;47463;49.884;10.010;2022-12-18T22:40:00;61.5;;;22.6;;
61570;SDS011;47463;49.884;10.010;2022-12-18T22:45:00;56.9;;;22.7;;
61570;SDS011;47463;49.884;10.010;2022-12-18T22:50:00;59.4;;;22.2;;
61570;SDS011;47463;49.884;10.010;2022-12-18T22:55:00;63.1;;;23.9;;
61570;SDS011;47463;49.884;10.010;2022-12-18T23:00:00;63.1;;;23.9;;
61570;SDS011;47463;49.884;10.010;2022-12-18T23:05:00;61.9;;;23.7;;
61570;SDS011;47463;49.884;10.010;2022-12-18T23:10:00;62;;;23.6;;
61570;SDS011;47463;49.884;10.010;2022-12-18T23:15:00;57.7;;;23.3;;
61570;SDS011;47463;49.884;10.010;2022-12-18T23:20:00;64.1;;;24.9;;
61570;SDS011;47463;49.884;10.010;2022-12-18T23:25:00;62;;;23;;
61570;SDS011;47463;49.884;10.010;2022-12-18T23:30:00;62;;;23;;
61570;SDS011;47463;49.884;10.010;2022-12-18T23:35:00;67.5;;;24;;
61570;SDS011;47463;49.884;10.010;2022-12-18T23:40:00;59.1;;;22.7;;
61570;SDS011;47463;49.884;10.010;2022-12-18T23:45:00;72.3;;;25;;
61570;SDS011;47463;49.884;10.010;2022-12-18T23:50:00;59.8;;;23.7;;
61570;SDS011;47463;49.884;10.010;2022-12-18T23:55:00;64.4;;;25.3;;
